Derry, New Hampshire
Current Conditions -  °F | °C
As of 6:06 AM on Friday 28 Nov 2014 (Local Time) from KMHT Reporting Station
Light Snow Light Snow  
Wind Chill: 20°   Ceiling: 1400
Heat Index: 27°   Visibility: 3mi
Dew Point: 24°   Wind: 6mph
Humidity: 89%   Direction: 20°NNE
Pressure: 30.02"   Gusts: NA
Location:  42.88°N, 71.32°W
Report Text: KMHT 281106Z 02005KT 3SM -SN BR FEW007 OVC014 M03/M04 A3002 RMK AO2 P0000 T10281044
Loading
Personal Weather Stations






























Interactive Weather Map New forecast layout! Learn more

10-Day Weather Forecast

Advertisements
Track Severe Weather on mobile